首页
METAR-TAF:

METAR-TAF

机场 :

呵叻, 泰国

纬度: 14-56-58N, 经度: 102-18-45E, 海拔: 233米

当前天气观测

该预报发布于1小时和3分钟前的13:00 UTC
风速6节,风向南转西南
温度 29°C
湿度 74%
气压 1007 hPa
能见度10公里或以上
少量云层高于3000英尺
多云层高于10000英尺

METAR: VTUQ 171300Z 21006KT 9999 FEW030 BKN100 29/24 Q1007 NOSIG

时间: 21:03 (14:03 UTC)

预报

该预报发布于3小时和3分钟前的11:00 UTC
预报有效从17日的 12点(UTC)到 18日的 12点(UTC)
风速5节,风向西南
能見度: 9000
散云层高于3000英尺
成为
从 18日的 01点(UTC)到 18日的 02点(UTC)
风速5节,风向西

TAF: VTUQ 171100Z 1712/1812 22005KT 9000 SCT030 BECMG 1801/1802 28005KT

超过4000个机场的气象观测和天气预报(METAR&TAF报告)。

可查询的气象台以黄色和红色小点在地图上表示。

将鼠标移到小点上方,可查看气象台名称。

然后点击查看天气观测和预报。

如需切换地图:点击带黑十字的绿色按钮放大地图;点击带横线的绿色按钮缩小地图;或者点击绿色箭头查看邻近地区的地图。


METAR-TAF: